createdAt,value
2022-12-16T00:02:18.762Z,56.45
2022-12-16T00:04:49.023Z,55.15
2022-12-16T00:07:18.006Z,50.97
2022-12-16T00:09:44.836Z,55.45
2022-12-16T00:12:12.753Z,49.80
2022-12-16T00:14:39.509Z,52.13
2022-12-16T00:17:06.643Z,52.30
2022-12-16T00:19:33.481Z,48.60
2022-12-16T00:22:00.487Z,48.67
2022-12-16T00:24:27.391Z,44.75
2022-12-16T00:26:54.602Z,51.58
2022-12-16T00:29:22.910Z,44.90
2022-12-16T00:31:49.936Z,49.75
2022-12-16T00:34:18.792Z,45.28
2022-12-16T00:36:46.639Z,47.85
2022-12-16T00:39:14.523Z,44.58
2022-12-16T00:41:42.398Z,44.15
2022-12-16T00:44:09.337Z,41.90
2022-12-16T00:46:36.437Z,48.97
2022-12-16T00:49:05.041Z,43.80
2022-12-16T00:51:32.274Z,48.58
2022-12-16T00:53:59.129Z,48.55
2022-12-16T00:56:26.022Z,44.47
2022-12-16T00:58:53.009Z,49.13
2022-12-16T01:01:21.925Z,46.53
2022-12-16T01:03:48.931Z,47.50
2022-12-16T01:06:17.836Z,51.38
2022-12-16T01:08:49.195Z,46.67
2022-12-16T01:11:18.485Z,50.85
2022-12-16T01:13:46.423Z,45.72
2022-12-16T01:16:13.488Z,50.53
2022-12-16T01:18:41.412Z,50.85
2022-12-16T01:21:12.063Z,50.95
2022-12-16T01:23:39.040Z,50.47
2022-12-16T01:26:15.565Z,51.92
2022-12-16T01:28:42.710Z,54.28
2022-12-16T01:31:09.757Z,52.80
2022-12-16T01:33:38.833Z,53.85
2022-12-16T01:36:08.176Z,54.92
2022-12-16T01:38:36.352Z,55.75
2022-12-16T01:41:04.483Z,53.40
2022-12-16T01:43:35.107Z,53.67
2022-12-16T01:46:14.859Z,50.38
2022-12-16T01:48:43.252Z,49.55
2022-12-16T01:51:21.454Z,54.03
2022-12-16T01:53:52.764Z,59.22
2022-12-16T01:56:24.225Z,57.28
2022-12-16T01:58:52.375Z,55.35
2022-12-16T02:01:19.699Z,55.35
2022-12-16T02:03:48.339Z,49.28
2022-12-16T02:06:15.265Z,55.30
2022-12-16T02:08:43.112Z,56.28
2022-12-16T02:11:34.202Z,53.20
2022-12-16T02:14:04.271Z,51.05
2022-12-16T02:16:36.918Z,55.80
2022-12-16T02:19:20.731Z,49.80
2022-12-16T02:22:14.976Z,53.55
2022-12-16T02:25:01.167Z,53.80
2022-12-16T02:27:55.081Z,53.10
2022-12-16T02:30:40.275Z,51.47
2022-12-16T02:33:08.439Z,51.83
2022-12-16T02:35:51.816Z,56.75
2022-12-16T02:38:56.868Z,53.35
2022-12-16T02:41:48.818Z,52.78
2022-12-16T02:44:20.011Z,49.88
2022-12-16T02:46:57.102Z,51.63
2022-12-16T02:49:24.977Z,58.95
2022-12-16T02:51:53.925Z,62.22
2022-12-16T02:54:20.889Z,56.17
2022-12-16T02:57:00.649Z,60.05
2022-12-16T03:00:05.906Z,55.13
2022-12-16T03:02:48.380Z,56.85
2022-12-16T03:05:41.205Z,50.25
2022-12-16T03:08:14.842Z,53.00
2022-12-16T03:10:46.166Z,59.20
2022-12-16T03:13:17.375Z,57.90
2022-12-16T03:15:45.502Z,57.08
2022-12-16T03:18:14.268Z,56.13
2022-12-16T03:20:52.863Z,58.42
2022-12-16T03:23:48.065Z,55.80
2022-12-16T03:26:34.507Z,52.83
2022-12-16T03:29:10.223Z,54.83
2022-12-16T03:31:43.736Z,63.50
2022-12-16T03:34:13.586Z,56.45
2022-12-16T03:36:42.113Z,55.95
2022-12-16T03:39:10.125Z,55.13
2022-12-16T03:41:38.068Z,63.95
2022-12-16T03:44:05.248Z,61.05
2022-12-16T03:46:33.214Z,59.00
2022-12-16T03:49:00.226Z,63.30
2022-12-16T03:51:27.274Z,60.78
2022-12-16T03:53:54.386Z,61.28
2022-12-16T03:56:21.332Z,64.05
2022-12-16T03:58:49.952Z,68.53
2022-12-16T04:01:16.906Z,65.97
2022-12-16T04:03:44.085Z,64.70
2022-12-16T04:06:11.306Z,66.18
2022-12-16T04:08:38.499Z,64.28
2022-12-16T04:11:23.854Z,73.93
2022-12-16T04:14:10.851Z,70.40
2022-12-16T04:16:56.439Z,80.93
2022-12-16T04:19:45.812Z,79.75
2022-12-16T04:22:46.550Z,69.13
2022-12-16T04:25:18.580Z,79.47
2022-12-16T04:27:46.900Z,83.35
2022-12-16T04:30:19.158Z,88.15
2022-12-16T04:33:15.046Z,75.10
2022-12-16T04:36:01.560Z,84.10
2022-12-16T04:38:46.910Z,77.68
2022-12-16T04:41:33.185Z,81.20
2022-12-16T04:44:19.069Z,84.68
2022-12-16T04:47:05.216Z,85.20
2022-12-16T04:49:52.196Z,81.45
2022-12-16T04:52:39.344Z,88.45
2022-12-16T04:55:26.503Z,84.65
2022-12-16T04:58:18.328Z,83.95
2022-12-16T05:01:05.057Z,84.32
2022-12-16T05:03:51.583Z,96.93
2022-12-16T05:06:38.431Z,90.65
2022-12-16T05:09:25.268Z,94.85
2022-12-16T05:12:11.883Z,88.22
2022-12-16T05:14:58.104Z,93.40
2022-12-16T05:17:44.660Z,85.25
2022-12-16T05:20:30.218Z,89.60
2022-12-16T05:23:16.068Z,86.38
2022-12-16T05:26:02.348Z,95.40
2022-12-16T05:28:49.746Z,90.85
2022-12-16T05:31:35.197Z,80.28
2022-12-16T05:34:20.844Z,93.40
2022-12-16T05:37:07.241Z,94.97
2022-12-16T05:39:56.154Z,87.10
2022-12-16T05:42:41.847Z,83.78
2022-12-16T05:45:27.502Z,85.18
2022-12-16T05:48:12.841Z,90.32
2022-12-16T05:50:58.236Z,93.32
2022-12-16T05:53:43.588Z,88.28
2022-12-16T05:56:30.095Z,91.25
2022-12-16T05:59:18.454Z,94.97
2022-12-16T06:02:03.926Z,94.90
2022-12-16T06:04:49.791Z,93.15
2022-12-16T06:07:35.067Z,98.72
2022-12-16T06:10:21.330Z,86.90
2022-12-16T06:13:06.774Z,77.30
2022-12-16T06:15:52.100Z,84.97
2022-12-16T06:18:37.612Z,84.80
2022-12-16T06:21:23.349Z,81.18
2022-12-16T06:24:08.742Z,73.57
2022-12-16T06:26:55.301Z,78.70
2022-12-16T06:29:40.747Z,74.22
2022-12-16T06:32:26.085Z,74.88
2022-12-16T06:35:12.442Z,78.82
2022-12-16T06:37:58.703Z,78.80
2022-12-16T06:40:44.067Z,73.75
2022-12-16T06:43:29.632Z,77.47
2022-12-16T06:46:15.464Z,92.28
2022-12-16T06:49:02.211Z,80.80
2022-12-16T06:51:47.490Z,74.72
2022-12-16T06:54:32.743Z,78.43
2022-12-16T06:57:19.207Z,78.85
2022-12-16T07:00:06.499Z,68.15
2022-12-16T07:02:52.277Z,69.28
2022-12-16T07:05:39.163Z,69.97
2022-12-16T07:08:26.518Z,73.00
2022-12-16T07:11:16.478Z,61.67
2022-12-16T07:14:04.805Z,69.30
2022-12-16T07:17:13.751Z,61.60
2022-12-16T07:20:03.550Z,61.88
2022-12-16T07:23:01.024Z,63.03
2022-12-16T07:25:51.827Z,66.95
2022-12-16T07:28:39.837Z,57.33
2022-12-16T07:31:25.441Z,59.08
2022-12-16T07:34:11.862Z,53.45
2022-12-16T07:37:02.126Z,61.50
2022-12-16T07:39:54.470Z,56.30
2022-12-16T07:42:41.814Z,58.63
2022-12-16T07:45:29.746Z,67.50
2022-12-16T07:48:16.171Z,53.95
2022-12-16T07:51:02.650Z,53.88
2022-12-16T07:53:49.761Z,50.72
2022-12-16T07:56:35.364Z,56.40
2022-12-16T07:59:21.043Z,50.30
2022-12-16T08:02:06.797Z,48.40
2022-12-16T08:04:52.333Z,53.33
2022-12-16T08:07:37.728Z,50.92
2022-12-16T08:10:30.328Z,55.60
2022-12-16T08:13:25.872Z,48.38
2022-12-16T08:16:20.409Z,53.03
2022-12-16T08:19:11.196Z,48.20
2022-12-16T08:21:58.136Z,48.33
2022-12-16T08:24:46.949Z,49.65
2022-12-16T08:27:37.413Z,52.75
2022-12-16T08:30:23.525Z,55.58
2022-12-16T08:33:18.491Z,53.70
2022-12-16T08:36:06.158Z,54.80
2022-12-16T08:38:52.118Z,53.22
2022-12-16T08:41:40.164Z,51.38
2022-12-16T08:44:25.681Z,49.75
2022-12-16T08:47:11.192Z,45.97
2022-12-16T08:49:59.797Z,46.28
2022-12-16T08:52:48.075Z,54.25
2022-12-16T08:55:34.583Z,51.33
2022-12-16T08:58:21.058Z,55.10
2022-12-16T09:01:07.736Z,48.38
2022-12-16T09:03:56.006Z,54.75
2022-12-16T09:06:45.117Z,56.15
2022-12-16T09:09:31.762Z,49.42
2022-12-16T09:12:17.004Z,46.30
2022-12-16T09:15:04.624Z,51.03
2022-12-16T09:17:51.156Z,57.88
2022-12-16T09:20:36.794Z,53.85
2022-12-16T09:23:23.282Z,54.42
2022-12-16T09:26:11.108Z,54.97
2022-12-16T09:28:57.588Z,51.25
2022-12-16T09:31:53.772Z,56.55
2022-12-16T09:34:42.359Z,58.58
2022-12-16T09:37:29.892Z,50.50
2022-12-16T09:40:15.220Z,55.30
2022-12-16T09:43:29.808Z,57.65
2022-12-16T09:46:15.224Z,53.05
2022-12-16T09:49:06.880Z,56.92
2022-12-16T09:51:55.534Z,52.05
2022-12-16T09:54:53.638Z,52.30
2022-12-16T09:57:42.497Z,52.05
2022-12-16T10:00:40.021Z,49.90
2022-12-16T10:03:41.448Z,52.83
2022-12-16T10:06:49.707Z,49.75
2022-12-16T10:09:45.764Z,47.72
2022-12-16T10:12:48.477Z,48.58
2022-12-16T10:16:01.477Z,53.35
2022-12-16T10:22:34.009Z,51.63
2022-12-16T10:25:37.950Z,55.90
2022-12-16T10:28:40.529Z,45.35
2022-12-16T10:31:35.248Z,45.08
2022-12-16T10:34:28.788Z,46.17
2022-12-16T10:37:20.499Z,47.38
2022-12-16T10:40:16.577Z,46.13
2022-12-16T10:43:26.358Z,47.17
2022-12-16T10:46:16.410Z,48.10
2022-12-16T10:49:04.008Z,46.70
2022-12-16T10:51:52.122Z,41.58
2022-12-16T10:54:39.612Z,45.55
2022-12-16T10:57:53.565Z,41.20
2022-12-16T11:00:57.782Z,50.30
2022-12-16T11:03:47.876Z,37.65
2022-12-16T11:06:41.044Z,44.03
2022-12-16T11:12:50.067Z,43.17
2022-12-16T11:15:49.870Z,42.45
2022-12-16T11:18:39.818Z,42.03
2022-12-16T11:21:40.176Z,38.75
2022-12-16T11:24:37.680Z,39.08
2022-12-16T11:27:44.290Z,33.72
2022-12-16T11:30:45.034Z,32.17
2022-12-16T11:33:40.975Z,33.17
2022-12-16T11:36:36.843Z,33.65
2022-12-16T11:39:28.926Z,32.10
2022-12-16T11:42:15.595Z,32.33
2022-12-16T11:45:07.380Z,34.05
2022-12-16T11:48:13.437Z,33.40
2022-12-16T11:54:31.514Z,36.10
2022-12-16T11:57:32.449Z,39.58
2022-12-16T12:00:20.817Z,32.83
2022-12-16T12:03:19.224Z,35.75
2022-12-16T12:06:23.582Z,36.30
2022-12-16T12:09:39.047Z,33.42
2022-12-16T12:12:54.731Z,34.05
2022-12-16T12:16:00.885Z,29.08
2022-12-16T12:18:58.644Z,35.17
2022-12-16T12:21:53.841Z,34.20
2022-12-16T12:25:16.688Z,35.53
2022-12-16T12:28:15.497Z,35.78
2022-12-16T12:31:19.291Z,40.90
2022-12-16T12:34:41.939Z,31.75
2022-12-16T12:37:35.808Z,32.95
2022-12-16T12:40:52.875Z,40.85
2022-12-16T12:44:10.428Z,36.17
2022-12-16T12:47:16.450Z,41.45
2022-12-16T12:50:18.270Z,37.50
2022-12-16T12:53:18.764Z,40.33
2022-12-16T12:56:28.455Z,39.63
2022-12-16T12:59:29.174Z,37.22
2022-12-16T13:02:15.861Z,37.40
2022-12-16T13:05:02.463Z,33.10
2022-12-16T13:07:50.699Z,33.20
2022-12-16T13:10:43.276Z,29.08
2022-12-16T13:13:56.129Z,24.65
2022-12-16T13:17:21.820Z,30.77
2022-12-16T13:20:16.736Z,27.60
2022-12-16T13:23:06.661Z,24.80
2022-12-16T13:26:09.714Z,25.77
2022-12-16T13:29:00.985Z,25.17
2022-12-16T13:31:49.247Z,47.20
2022-12-16T13:34:34.986Z,28.35
2022-12-16T13:37:29.850Z,25.08
2022-12-16T13:40:41.919Z,26.55
2022-12-16T13:44:11.178Z,22.75
2022-12-16T13:47:05.907Z,30.50
2022-12-16T13:50:46.477Z,27.63
2022-12-16T13:53:38.400Z,27.92
2022-12-16T13:56:26.497Z,26.13
2022-12-16T13:59:20.287Z,28.95
2022-12-16T14:02:05.829Z,26.73
2022-12-16T14:04:58.654Z,31.42
2022-12-16T14:07:46.413Z,30.17
2022-12-16T14:10:59.693Z,34.15
2022-12-16T14:14:19.833Z,24.13
2022-12-16T14:17:18.169Z,29.17
2022-12-16T14:20:29.588Z,29.35
2022-12-16T14:24:01.030Z,29.30
2022-12-16T14:26:47.387Z,30.38
2022-12-16T14:29:48.546Z,24.73
2022-12-16T14:32:49.840Z,23.55
2022-12-16T14:35:41.389Z,30.42
2022-12-16T14:38:49.283Z,23.65
2022-12-16T14:41:39.460Z,20.17
2022-12-16T14:44:42.647Z,27.70
2022-12-16T14:47:36.900Z,26.52
2022-12-16T14:50:30.262Z,30.38
2022-12-16T14:53:36.745Z,27.27
2022-12-16T14:56:42.256Z,35.67
2022-12-16T14:59:39.761Z,26.13
2022-12-16T15:02:53.384Z,23.98
2022-12-16T15:05:53.905Z,24.50
2022-12-16T15:09:14.443Z,22.02
2022-12-16T15:12:02.738Z,22.92
2022-12-16T15:14:54.759Z,28.58
2022-12-16T15:17:51.754Z,30.40
2022-12-16T15:20:44.524Z,29.30
2022-12-16T15:23:41.617Z,24.67
2022-12-16T15:26:34.906Z,19.75
2022-12-16T15:29:20.446Z,27.42
2022-12-16T15:32:06.749Z,27.35
2022-12-16T15:35:20.407Z,37.97
2022-12-16T15:38:05.717Z,27.88
2022-12-16T15:40:53.216Z,28.15
2022-12-16T15:43:47.910Z,31.90
2022-12-16T15:46:49.730Z,26.73
2022-12-16T15:49:51.699Z,20.83
2022-12-16T15:52:52.311Z,17.92
2022-12-16T15:55:58.168Z,24.42
2022-12-16T15:58:51.173Z,21.85
2022-12-16T16:01:42.337Z,17.85
2022-12-16T16:04:49.182Z,28.95
2022-12-16T16:07:37.402Z,33.85
2022-12-16T16:10:41.412Z,35.05
2022-12-16T16:13:27.860Z,37.40
2022-12-16T16:16:13.846Z,37.45
2022-12-16T16:19:00.858Z,35.92
2022-12-16T16:21:47.450Z,33.75
2022-12-16T16:24:33.306Z,38.60
2022-12-16T16:27:21.805Z,37.90
2022-12-16T16:30:10.139Z,35.53
2022-12-16T16:32:55.505Z,44.65
2022-12-16T16:35:43.459Z,38.10
2022-12-16T16:38:30.348Z,38.15
2022-12-16T16:41:17.590Z,43.63
2022-12-16T16:44:04.752Z,66.72
2022-12-16T16:46:55.683Z,49.30
2022-12-16T16:49:50.192Z,45.58
2022-12-16T16:52:39.926Z,46.72
2022-12-16T16:55:38.344Z,48.80
2022-12-16T16:58:42.703Z,57.58
2022-12-16T17:01:32.175Z,58.60
2022-12-16T17:04:17.704Z,59.15
2022-12-16T17:07:05.577Z,64.72
2022-12-16T17:09:53.550Z,69.45
2022-12-16T17:12:42.781Z,64.28
2022-12-16T17:15:42.860Z,63.10
2022-12-16T17:18:29.369Z,63.90
2022-12-16T17:21:15.962Z,71.10
2022-12-16T17:24:02.961Z,64.72
2022-12-16T17:26:50.295Z,75.68
2022-12-16T17:29:44.984Z,84.80
2022-12-16T17:32:32.975Z,68.57
2022-12-16T17:35:20.957Z,83.00
2022-12-16T17:38:12.433Z,77.45
2022-12-16T17:41:06.552Z,70.78
2022-12-16T17:44:18.974Z,72.07
2022-12-16T17:47:16.225Z,75.30
2022-12-16T17:50:06.792Z,70.85
2022-12-16T18:08:53.475Z,74.18
2022-12-16T18:14:48.784Z,75.22
2022-12-16T18:17:37.010Z,72.25
2022-12-16T18:20:53.828Z,71.10
2022-12-16T18:23:42.651Z,77.05
2022-12-16T18:26:29.820Z,78.13
2022-12-16T18:29:17.410Z,74.78
2022-12-16T18:32:08.833Z,83.13
2022-12-16T18:34:55.557Z,75.57
2022-12-16T18:37:43.939Z,79.78
2022-12-16T18:40:37.182Z,77.93
2022-12-16T18:47:06.456Z,67.90
2022-12-16T18:49:53.635Z,74.95
2022-12-16T18:52:50.218Z,79.40
2022-12-16T18:55:38.137Z,82.20
2022-12-16T18:58:50.255Z,75.60
2022-12-16T19:01:33.943Z,89.72
2022-12-16T19:04:24.289Z,75.18
2022-12-16T19:07:20.933Z,86.63
2022-12-16T19:10:09.043Z,87.57
2022-12-16T19:13:00.551Z,87.72
2022-12-16T19:15:47.044Z,81.75
2022-12-16T19:18:36.665Z,89.20
2022-12-16T19:21:24.782Z,92.22
2022-12-16T19:24:37.535Z,97.35
2022-12-16T19:27:23.995Z,91.18
2022-12-16T19:30:09.851Z,94.00
2022-12-16T19:36:02.824Z,92.15
2022-12-16T19:38:57.817Z,90.07
2022-12-16T19:41:44.178Z,87.47
2022-12-16T19:44:51.586Z,85.28
2022-12-16T19:47:38.353Z,85.40
2022-12-16T19:50:29.978Z,85.88
2022-12-16T19:53:16.303Z,93.87
2022-12-16T19:59:16.347Z,80.68
2022-12-16T20:02:02.512Z,82.20
2022-12-16T20:04:49.474Z,81.28
2022-12-16T20:07:37.296Z,86.45
2022-12-16T20:16:26.497Z,79.57
2022-12-16T20:20:04.111Z,85.82
2022-12-16T20:22:54.195Z,88.20
2022-12-16T20:25:42.713Z,82.00
2022-12-16T20:31:42.542Z,90.93
2022-12-16T20:34:49.411Z,89.60
2022-12-16T20:41:17.980Z,95.93
2022-12-16T20:44:08.286Z,88.40
2022-12-16T20:46:57.434Z,88.38
2022-12-16T20:49:43.225Z,80.97
2022-12-16T20:52:31.209Z,89.68
2022-12-16T20:55:16.925Z,92.22
2022-12-16T20:58:05.861Z,99.82
2022-12-16T21:04:00.588Z,101.60
2022-12-16T21:06:47.464Z,93.03
2022-12-16T21:09:34.397Z,92.07
2022-12-16T21:12:19.920Z,96.47
2022-12-16T21:15:05.610Z,89.10
2022-12-16T21:17:51.899Z,94.55
2022-12-16T21:20:37.493Z,96.57
2022-12-16T21:23:26.964Z,97.93
2022-12-16T21:26:12.812Z,93.35
2022-12-16T21:28:59.869Z,94.80
2022-12-16T21:31:45.558Z,93.88
2022-12-16T21:34:48.937Z,94.97
2022-12-16T21:37:34.903Z,96.43
2022-12-16T21:40:21.569Z,98.13
2022-12-16T21:43:10.118Z,99.75
2022-12-16T21:46:01.710Z,96.93
2022-12-16T21:48:47.502Z,103.25
2022-12-16T21:51:34.139Z,95.57
2022-12-16T21:54:29.508Z,93.88
2022-12-16T22:00:18.887Z,91.70
2022-12-16T22:03:05.513Z,91.65
2022-12-16T22:06:00.768Z,91.35
2022-12-16T22:08:49.912Z,93.95
2022-12-16T22:11:38.268Z,89.00
2022-12-16T22:14:27.598Z,83.13
2022-12-16T22:17:15.157Z,80.43
2022-12-16T22:20:01.987Z,86.05
2022-12-16T22:22:48.129Z,73.05
2022-12-16T22:25:33.620Z,78.30
2022-12-16T22:28:21.270Z,73.47
2022-12-16T22:31:16.501Z,72.55
2022-12-16T22:34:02.621Z,75.22
2022-12-16T22:36:50.071Z,79.13
2022-12-16T22:39:37.796Z,82.18
2022-12-16T22:42:29.016Z,76.38
2022-12-16T22:45:16.944Z,75.45
2022-12-16T22:48:02.724Z,78.82
2022-12-16T22:50:51.309Z,73.13
2022-12-16T22:53:37.772Z,74.68
2022-12-16T22:56:23.656Z,76.63
2022-12-16T22:59:13.303Z,80.35
2022-12-16T23:02:00.209Z,71.75
2022-12-16T23:04:46.874Z,75.13
2022-12-16T23:07:33.251Z,72.82
2022-12-16T23:10:20.754Z,77.97
2022-12-16T23:13:06.216Z,85.60
2022-12-16T23:15:51.971Z,77.70
2022-12-16T23:18:40.415Z,85.93
2022-12-16T23:21:34.303Z,86.32
2022-12-16T23:24:19.860Z,79.65
2022-12-16T23:27:05.810Z,81.80
2022-12-16T23:29:52.128Z,80.93
2022-12-16T23:32:30.476Z,99.63
2022-12-16T23:32:37.702Z,79.80
2022-12-16T23:35:24.348Z,82.82
2022-12-16T23:38:09.980Z,74.75
2022-12-16T23:40:56.353Z,76.57
2022-12-16T23:43:43.765Z,81.78
2022-12-16T23:46:29.267Z,75.80
2022-12-16T23:49:15.655Z,68.50
2022-12-16T23:52:02.732Z,81.30
2022-12-16T23:54:48.226Z,71.85
2022-12-16T23:57:35.819Z,71.05
